Aérodrome :
LOGIN :

S'inscrire | Disclaimer

   EN    FR    IT 

 










Légende :    VFR   VFR Marginal   IFR   IFR Intensif   IFR Très Intensif
Visi : 
Plafond : 
>= 8 km
>= 3000ft
5 à 8 km
1000 à 3000 ft
1500m à 5 km
500 à 1000 ft
800 à 1500m
200 à 500 ft
< 800m
< 200 ft
Symboles :   Orages  Brouillard  Fortes neiges  Fortes précipitations  Vent > 20 kt
SIGMETs :   Divers  Orages  Givrage  Turbulence  Onde Orograph.  Cendres Volcan.







- Altitude de l'aérodrome : 821 ft
- Code IATA : LYS
- Voir les cartes d'approche


LFLL - Lyon St Exupéry / Satolas

DERNIER METAR :
  • 131234Z 18009KT 9999 BKN050 BKN100 06/M02 Q1016 TEMPO 4000 RA

METARs EXPIRÉS :
  • 131200Z 16011KT CAVOK 05/M02 Q1016 TEMPO 4000 RA
  • 131130Z 15009KT CAVOK 04/M01 Q1016 NOSIG
  • 131100Z 14010KT CAVOK 04/M01 Q1017 NOSIG
  • 131030Z 14010KT CAVOK 03/M01 Q1018 NOSIG
  • 131000Z 15009KT CAVOK 02/M01 Q1018 NOSIG

TAF TAF LFLL
Valide du 13 à 12h jusqu'au 14 à 18h UTC


131100Z 1312/1418 18013KT CAVOK
TEMPO 1313/1315 4000 RA SCT014 BKN040
BECMG 1315/1317 18020G30KT
PROB40
TEMPO 1318/1404 4000 RA BKN014
TEMPO 1320/1401 18025G40KT
BECMG 1403/1405 18013KT BKN030
BECMG 1410/1412 18020G30KT
TEMPO 1416/1418 18025G40KT
Pas de NOTAMs connus pour ce terrain.
1 SIGMET publié pour la FIR Marseille (LFMM) :
 
Onde orographique forte
LFMM SIGMET 3 VALID 131300/131700 LFPW
LFMM MARSEILLE FIR/UIR SEV MTW FCST E OF E00900 SFC/FL320 STNR NC=



MET'MAP, la Météo Aéronautique d'un coup d'oeil ! - Copyright ORBIFLY Décembre 2007 - Disclaimer

ORBIFLY MET'MAP TEAM :

Programmation & Développement : Alexandra Zaïnal
Conception & Développement : Baudouin d'Aumeries
Co-Programmation & Développement : Marc-Olivier Méhu
Soutien technique & logistique : Manuel Goepfert

Contact : metmap@orbifly.com




SOURCES & CREDITS :

   NOAA